Southern Tiare — E5U2082 — position and weather

sailwx.info

Track history (hours):
 
Tides and Currents Weather Stations Pressure Air Temp Water Temp Dewpoint Dewpoint Depression Visibility Wind Speed Wind Dir Waves Ship Positions

Southern Tiare

Last reported at 2018-Jan-08 08:59 UTC. Time now 2018-Feb-22 19:17 UTC.
Position S 44°22' E 177°11'.
Warning: this ship's position is 45 days out of date.

Length 67 m; draft 3.3 m.

Type: Cargo ship. MMSI: 518132000.

Date/timePositionNaut miles runAvg speedWind from/ knotsBaromVisibWave heightAir tempDewpointWater temp
2018-Jan-08 08:59S 44°22' E 177°11'4 8.7
2018-Jan-08 08:30S 44°23' E 177°06'17 8.9
2018-Jan-08 06:38S 44°27' E 176°43'1 8.9
2018-Jan-08 06:30S 44°27' E 176°41'6 9.0
2018-Jan-08 05:50S 44°28' E 176°33'3 9.2
2018-Jan-08 05:30S 44°29' E 176°29'20 9.4
2018-Jan-08 03:23S 44°34' E 176°02'3 9.1
2018-Jan-08 03:00S 44°34' E 175°57'5 9.2
2018-Jan-08 02:31S 44°35' E 175°51'26 9.1
2018-Jan-07 23:40S 44°42' E 175°15'14 9.4
2018-Jan-07 22:09S 44°45' E 174°56'2 9.5
2018-Jan-07 21:59S 44°46' E 174°54'4 9.2
2018-Jan-07 21:30S 44°47' E 174°48'10 9.5
2018-Jan-07 20:27S 44°47' E 174°34'510.0
2018-Jan-07 19:59S 44°49' E 174°28'5 9.7
2018-Jan-07 19:30S 44°51' E 174°22'7 9.0
2018-Jan-07 18:45S 44°51' E 174°13'2 9.2
2018-Jan-07 18:31S 44°51' E 174°10'5 9.2
2018-Jan-07 18:00S 44°49' E 174°03'4 9.3
2018-Jan-07 17:31S 44°48' E 173°57'5 9.3
2018-Jan-07 17:00S 44°47' E 173°51'  
Track history (hours):
 
Tides and Currents Weather Stations Pressure Air Temp Water Temp Dewpoint Dewpoint Depression Visibility Wind Speed Wind Dir Waves Ship Positions

Southern Tiare

Last reported at 2018-Jan-08 08:59 UTC. Time now 2018-Feb-22 19:17 UTC.
Position S 44°22' E 177°11'.
Warning: this ship's position is 45 days out of date.

Length 67 m; draft 3.3 m.

Type: Cargo ship. MMSI: 518132000.

Date/timePositionNaut miles runAvg speedWind from/ knotsBaromVisibWave heightAir tempDewpointWater temp
2018-Jan-08 08:59S 44°22' E 177°11'4 8.7
2018-Jan-08 08:30S 44°23' E 177°06'17 8.9
2018-Jan-08 06:38S 44°27' E 176°43'1 8.9
2018-Jan-08 06:30S 44°27' E 176°41'6 9.0
2018-Jan-08 05:50S 44°28' E 176°33'3 9.2
2018-Jan-08 05:30S 44°29' E 176°29'20 9.4
2018-Jan-08 03:23S 44°34' E 176°02'3 9.1
2018-Jan-08 03:00S 44°34' E 175°57'5 9.2
2018-Jan-08 02:31S 44°35' E 175°51'26 9.1
2018-Jan-07 23:40S 44°42' E 175°15'14 9.4
2018-Jan-07 22:09S 44°45' E 174°56'2 9.5
2018-Jan-07 21:59S 44°46' E 174°54'4 9.2
2018-Jan-07 21:30S 44°47' E 174°48'10 9.5
2018-Jan-07 20:27S 44°47' E 174°34'510.0
2018-Jan-07 19:59S 44°49' E 174°28'5 9.7
2018-Jan-07 19:30S 44°51' E 174°22'7 9.0
2018-Jan-07 18:45S 44°51' E 174°13'2 9.2
2018-Jan-07 18:31S 44°51' E 174°10'5 9.2
2018-Jan-07 18:00S 44°49' E 174°03'4 9.3
2018-Jan-07 17:31S 44°48' E 173°57'5 9.3
2018-Jan-07 17:00S 44°47' E 173°51'  

Dump ship's entire track history